Decoded METAR's for Botswana

 
 
Print Page

Back to Weather Page

 
 

Francistown - Botswana, FBFT

ADDS - TAFS form results

Aviation Digital Data Service (ADDS)

Output produced by TAFs form (0425 UTC 24 April 2018)
found at http://aviationweather.gov/adds/tafs/
 
You entered "FBFT"

Sorry, either there are no data available for your request or you did not enter any valid ICAO airport abbreviations.

See stations.txt for a list of known METAR and TAF locations. Then go back to the ADDS METARs or TAFs page and try again
 
Please try again and, if problems persist, then send mail to ncep.awc.adds@noaa.gov
Array
Ghanzi - Botswana, FBGZ

ADDS - TAFS form results

Aviation Digital Data Service (ADDS)

Output produced by TAFs form (0425 UTC 24 April 2018)
found at http://aviationweather.gov/adds/tafs/
 
You entered "FBGZ"

Sorry, either there are no data available for your request or you did not enter any valid ICAO airport abbreviations.

See stations.txt for a list of known METAR and TAF locations. Then go back to the ADDS METARs or TAFs page and try again
 
Please try again and, if problems persist, then send mail to ncep.awc.adds@noaa.gov
Array
Kasane - Botswana, FBKE

ADDS - TAFS form results

Aviation Digital Data Service (ADDS)

Output produced by TAFs form (0425 UTC 24 April 2018)
found at http://aviationweather.gov/adds/tafs/
 
METAR text: FBKE 240400Z 14006KT CAVOK 15/11 Q1020
Conditions at: FBKE (KASANE , BW) observed 0400 UTC 24 April 2018
Temperature: 15.0°C (59°F)
Dewpoint: 11.0°C (52°F) [RH = 77%]
Pressure (altimeter): 30.12 inches Hg (1020.0 mb)
Winds: from the SE (140 degrees) at 7 MPH (6 knots; 3.1 m/s)
Visibility: 6 or more miles (10+ km)
Ceiling: ceiling and visibility are OK
Clouds: unknown
Weather: no significant weather observed at this time

Array
Maun - Botswana, FBMN

ADDS - TAFS form results

Aviation Digital Data Service (ADDS)

Output produced by TAFs form (0425 UTC 24 April 2018)
found at http://aviationweather.gov/adds/tafs/
 
METAR text: FBMN 240400Z VRB01KT CAVOK 11/08 Q1020
Conditions at: FBMN (MAUN , BW) observed 0400 UTC 24 April 2018
Temperature: 11.0°C (52°F)
Dewpoint: 8.0°C (46°F) [RH = 82%]
Pressure (altimeter): 30.12 inches Hg (1020.0 mb)
Winds: variable direction winds at 1 MPH (1 knots; 0.5 m/s)
Visibility: 6 or more miles (10+ km)
Ceiling: ceiling and visibility are OK
Clouds: unknown
Weather: no significant weather observed at this time

Array
Gaberone Sir Seretsi Kama - Botswana, FBSK

ADDS - TAFS form results

Aviation Digital Data Service (ADDS)

Output produced by TAFs form (0425 UTC 24 April 2018)
found at http://aviationweather.gov/adds/tafs/
 
METAR text: FBSK 240400Z 28004KT CAVOK 08/08 Q1021 NOSIG
Conditions at: FBSK (SIR SERETSE KHAM, BW) observed 0400 UTC 24 April 2018
Temperature: 8.0°C (46°F)
Dewpoint: 8.0°C (46°F) [RH = 100%]
Pressure (altimeter): 30.15 inches Hg (1021.0 mb)
Winds: from the W (280 degrees) at 5 MPH (4 knots; 2.1 m/s)
Visibility: 6 or more miles (10+ km)
Ceiling: ceiling and visibility are OK
Clouds: unknown
Weather: no significant weather observed at this time

Array
Selebi Phikwe - Botswana, FBSP

ADDS - TAFS form results

Aviation Digital Data Service (ADDS)

Output produced by TAFs form (0425 UTC 24 April 2018)
found at http://aviationweather.gov/adds/tafs/
 
METAR text: FBSP 240400Z 00000KT CAVOK 13/10 Q1020
Conditions at: FBSP (SELEBI PHIKWE , BW) observed 0400 UTC 24 April 2018
Temperature: 13.0°C (55°F)
Dewpoint: 10.0°C (50°F) [RH = 82%]
Pressure (altimeter): 30.12 inches Hg (1020.0 mb)
Winds: calm
Visibility: 6 or more miles (10+ km)
Ceiling: ceiling and visibility are OK
Clouds: unknown
Weather: no significant weather observed at this time

Array